Kaneohe, HI

3:17 PM HST on August 29, 2015 (GMT -1000)
Kaneohe Bay Marine Corps Air Facility | | Change Station
CLOSE
Current Station
Airport
Location: Kaneohe MCBH,
Elevation: 23 ft
Nearby Weather Stations

Elev 23 ft 21.45 °N, 157.76 °W | Updated 9 minutes ago

Mostly Cloudy
Mostly Cloudy
84 °F
Feels Like 90 °F
N
12
Wind Variable Wind from ENE

Today
High -- | Low -- °F
--% Chance of Precip.
Yesterday
High -- | Low -- °F
Precip. -- in
6:13 AM 6:50 PM
Full, 100% visible
Pressure 29.85 in
Visibility -9999.0 miles
Clouds Mostly Cloudy 2600 ft
Heat Index 90 °F
Dew Point 73 °F
Humidity 69%
Rainfall 0.00 in
Snow Depth Not available.
UV 4 out of 12
Pollen Not available.
Air Quality Not available.
Flu Activity Not available.
SPECI PHNG 300108Z AUTO 06010KT BKN026 29/23 A2985 RMK AO2 T02890228 $
Pressure 29.85 in
Visibility -9999.0 miles
Clouds Mostly Cloudy 2600 ft
Heat Index 90 °F
Dew Point 73 °F
Humidity 69%
Rainfall 0.00 in
Snow Depth Not available.
UV 4 out of 12
Pollen Not available.
Air Quality Not available.
Flu Activity Not available.
SPECI PHNG 300108Z AUTO 06010KT BKN026 29/23 A2985 RMK AO2 T02890228 $
The busy hurricane season continues as Hurricane Ignacio may threaten The Big Island Monday. Ignacio is expected to strengthen into a Category 2 hurricane later today, before possibly weakening to a Category 1 storm Monday. The most likely scenario is that storm will pass to the north of Hawaii, there is enough difference is guidance to suggest that residents should prepare for the storm.

10-Day Weather Forecast

×

Almanac

Astronomy

Aug. 29, 2015 Rise Set
Actual Time
Civil Twilight
Nautical Twilight
Astronomical Twilight
Moon
Length of Visible Light
Length of Day
Tomorrow will be .
, % of the Moon is Illuminated

Today's Extremes

State Highs State Lows

Community

WunderPhotos

Upload Photos

1,850,827 photos uploaded!

WunderBlogs® & News

Nearby

Air Quality

  Air Quality AQ Index Pollutant
Not available.

Snow Depth

Station Depth Elevation

Earthquake Activity

City Distance Mag. Time & Date
Minimum magnitude displayed is 2.5.

Coastal Water Temperatures

Place Temperature

Stations

Nearby Weather Stations

Station Location Temp. Windchill Dew Point Humidity Wind Precip. Elev Updated Type